createdAt,value
2018-11-12T00:01:06.994Z,96534.30
2018-11-12T00:03:34.255Z,96533.63
2018-11-12T00:06:01.517Z,96529.81
2018-11-12T00:08:28.765Z,96531.23
2018-11-12T00:10:56.015Z,96532.42
2018-11-12T00:13:23.286Z,96527.64
2018-11-12T00:15:50.541Z,96535.01
2018-11-12T00:18:17.759Z,96531.89
2018-11-12T00:20:44.977Z,96530.98
2018-11-12T00:23:12.223Z,96533.23
2018-11-12T00:25:39.420Z,96535.08
2018-11-12T00:28:06.645Z,96536.38
2018-11-12T00:30:33.894Z,96540.11
2018-11-12T00:33:01.142Z,96538.84
2018-11-12T00:35:28.412Z,96542.53
2018-11-12T00:37:55.652Z,96539.35
2018-11-12T00:40:22.865Z,96543.38
2018-11-12T00:42:50.126Z,96538.59
2018-11-12T00:45:17.424Z,96534.32
2018-11-12T00:47:44.688Z,96535.41
2018-11-12T00:50:13.026Z,96533.07
2018-11-12T00:52:40.273Z,96538.19
2018-11-12T00:55:08.950Z,96540.22
2018-11-12T00:57:36.257Z,96540.95
2018-11-12T01:00:03.785Z,96531.64
2018-11-12T01:02:31.094Z,96530.73
2018-11-12T01:04:58.342Z,96531.67
2018-11-12T01:07:25.583Z,96540.03
2018-11-12T01:09:52.793Z,96525.48
2018-11-12T01:12:20.058Z,96535.91
2018-11-12T01:14:47.307Z,96534.52
2018-11-12T01:17:14.495Z,96536.55
2018-11-12T01:19:41.787Z,96529.94
2018-11-12T01:22:09.011Z,96531.59
2018-11-12T01:24:36.288Z,96533.63
2018-11-12T01:27:03.527Z,96530.56
2018-11-12T01:29:30.706Z,96524.87
2018-11-12T01:31:57.993Z,96519.50
2018-11-12T01:34:25.225Z,96515.46
2018-11-12T01:36:52.635Z,96511.31
2018-11-12T01:39:19.913Z,96497.17
2018-11-12T01:41:47.205Z,96513.08
2018-11-12T01:44:14.444Z,96509.34
2018-11-12T01:46:41.757Z,96504.31
2018-11-12T01:49:09.814Z,96499.77
2018-11-12T01:51:37.115Z,96504.72
2018-11-12T01:54:04.614Z,96494.29
2018-11-12T01:56:31.870Z,96484.25
2018-11-12T01:58:59.139Z,96494.09
2018-11-12T02:01:26.460Z,96498.59
2018-11-12T02:03:53.762Z,96495.44
2018-11-12T02:06:21.049Z,96499.16
2018-11-12T02:08:48.322Z,96488.31
2018-11-12T02:11:15.496Z,96490.03
2018-11-12T02:13:42.922Z,96494.19
2018-11-12T02:16:10.492Z,96478.29
2018-11-12T02:18:37.953Z,96492.31
2018-11-12T02:21:05.856Z,96493.06
2018-11-12T02:23:33.110Z,96479.23
2018-11-12T02:26:00.464Z,96480.44
2018-11-12T02:28:27.630Z,96484.30
2018-11-12T02:30:54.844Z,96481.35
2018-11-12T02:33:22.229Z,96480.64
2018-11-12T02:35:49.367Z,96482.89
2018-11-12T02:38:16.583Z,96479.87
2018-11-12T02:40:43.828Z,96483.51
2018-11-12T02:43:11.120Z,96481.12
2018-11-12T02:45:38.420Z,96485.58
2018-11-12T02:48:05.716Z,96479.91
2018-11-12T02:50:32.976Z,96476.31
2018-11-12T02:53:00.221Z,96477.13
2018-11-12T02:55:27.414Z,96477.48
2018-11-12T02:57:54.692Z,96474.06
2018-11-12T03:00:22.777Z,96475.91
2018-11-12T03:02:50.189Z,96466.35
2018-11-12T03:05:17.449Z,96470.70
2018-11-12T03:07:44.933Z,96480.09
2018-11-12T03:10:19.119Z,96473.36
2018-11-12T03:12:46.446Z,96476.81
2018-11-12T03:15:14.364Z,96479.16
2018-11-12T03:17:42.446Z,96468.82
2018-11-12T03:20:11.773Z,96471.06
2018-11-12T03:22:39.109Z,96467.97
2018-11-12T03:25:07.581Z,96477.27
2018-11-12T03:27:34.875Z,96481.08
2018-11-12T03:30:02.233Z,96476.23
2018-11-12T03:32:29.550Z,96467.73
2018-11-12T03:34:56.862Z,96468.19
2018-11-12T03:37:24.117Z,96477.72
2018-11-12T03:39:51.410Z,96474.75
2018-11-12T03:42:18.598Z,96480.05
2018-11-12T03:44:45.809Z,96479.91
2018-11-12T03:47:13.089Z,96478.43
2018-11-12T03:49:40.404Z,96475.55
2018-11-12T03:52:07.652Z,96480.94
2018-11-12T03:54:34.934Z,96474.79
2018-11-12T03:57:02.232Z,96469.98
2018-11-12T03:59:29.499Z,96471.14
2018-11-12T04:01:56.759Z,96473.20
2018-11-12T04:04:23.976Z,96477.20
2018-11-12T04:06:51.185Z,96480.11
2018-11-12T04:09:18.419Z,96479.60
2018-11-12T04:11:45.744Z,96478.54
2018-11-12T04:14:13.359Z,96478.84
2018-11-12T04:16:42.790Z,96483.69
2018-11-12T04:19:10.090Z,96492.44
2018-11-12T04:21:37.313Z,96487.87
2018-11-12T04:24:05.170Z,96474.39
2018-11-12T04:26:32.360Z,96476.91
2018-11-12T04:28:59.862Z,96465.61
2018-11-12T04:31:27.157Z,96463.91
2018-11-12T04:33:54.458Z,96466.52
2018-11-12T04:36:22.063Z,96458.98
2018-11-12T04:38:49.277Z,96459.16
2018-11-12T04:41:16.516Z,96446.47
2018-11-12T04:43:43.727Z,96442.03
2018-11-12T04:46:11.012Z,96442.70
2018-11-12T04:48:38.288Z,96437.80
2018-11-12T04:51:05.619Z,96428.59
2018-11-12T04:53:32.890Z,96426.89
2018-11-12T04:56:00.162Z,96416.70
2018-11-12T04:58:27.383Z,96419.37
2018-11-12T05:00:54.715Z,96426.13
2018-11-12T05:03:21.928Z,96434.84
2018-11-12T05:05:49.174Z,96444.68
2018-11-12T05:08:16.440Z,96449.83
2018-11-12T05:10:43.683Z,96456.95
2018-11-12T05:13:10.993Z,96466.45
2018-11-12T05:15:38.293Z,96469.12
2018-11-12T05:18:05.645Z,96457.52
2018-11-12T05:20:32.840Z,96460.30
2018-11-12T05:23:00.152Z,96449.98
2018-11-12T05:25:27.378Z,96452.69
2018-11-12T05:27:54.673Z,96453.86
2018-11-12T05:30:23.996Z,96448.27
2018-11-12T05:32:51.191Z,96453.08
2018-11-12T05:35:19.705Z,96452.69
2018-11-12T05:37:47.064Z,96449.98
2018-11-12T05:40:17.595Z,96449.20
2018-11-12T05:42:44.874Z,96451.92
2018-11-12T05:45:12.848Z,96459.04
2018-11-12T05:47:40.103Z,96456.16
2018-11-12T05:50:10.219Z,96457.97
2018-11-12T05:52:37.484Z,96457.43
2018-11-12T05:55:05.659Z,96456.18
2018-11-12T05:57:32.898Z,96454.84
2018-11-12T06:00:00.146Z,96450.48
2018-11-12T06:02:27.496Z,96452.23
2018-11-12T06:04:54.868Z,96460.23
2018-11-12T06:07:22.035Z,96457.55
2018-11-12T06:09:49.353Z,96458.58
2018-11-12T06:12:16.599Z,96459.56
2018-11-12T06:14:43.866Z,96467.73
2018-11-12T06:17:11.061Z,96470.47
2018-11-12T06:19:38.348Z,96476.62
2018-11-12T06:22:05.652Z,96481.80
2018-11-12T06:24:32.849Z,96476.27
2018-11-12T06:27:00.119Z,96480.90
2018-11-12T06:29:27.354Z,96480.18
2018-11-12T06:31:54.627Z,96482.78
2018-11-12T06:34:22.041Z,96480.09
2018-11-12T06:36:49.386Z,96490.46
2018-11-12T06:39:16.609Z,96470.02
2018-11-12T06:41:43.833Z,96486.75
2018-11-12T06:44:11.115Z,96487.73
2018-11-12T06:46:38.357Z,96494.52
2018-11-12T06:49:05.622Z,96495.42
2018-11-12T06:51:32.859Z,96493.80
2018-11-12T06:54:00.137Z,96485.61
2018-11-12T06:56:27.420Z,96492.89
2018-11-12T06:58:54.729Z,96493.05
2018-11-12T07:01:21.970Z,96495.34
2018-11-12T07:03:49.198Z,96502.33
2018-11-12T07:06:16.439Z,96495.14
2018-11-12T07:08:43.671Z,96494.83
2018-11-12T07:11:11.023Z,96498.34
2018-11-12T07:13:39.126Z,96493.78
2018-11-12T07:16:06.386Z,96496.30
2018-11-12T07:18:33.649Z,96502.17
2018-11-12T07:21:00.851Z,96501.49
2018-11-12T07:23:28.147Z,96500.47
2018-11-12T07:25:55.414Z,96505.57
2018-11-12T07:28:22.668Z,96513.64
2018-11-12T07:30:49.954Z,96500.87
2018-11-12T07:33:17.176Z,96502.00
2018-11-12T07:35:44.425Z,96511.84
2018-11-12T07:38:11.698Z,96517.58
2018-11-12T07:40:38.913Z,96508.31
2018-11-12T07:43:06.136Z,96511.55
2018-11-12T07:45:33.409Z,96521.81
2018-11-12T07:48:00.694Z,96507.86
2018-11-12T07:50:29.183Z,96511.84
2018-11-12T07:52:56.403Z,96481.19
2018-11-12T07:55:24.694Z,96521.12
2018-11-12T07:57:53.070Z,96523.78
2018-11-12T08:00:22.933Z,96513.20
2018-11-12T08:02:53.800Z,96513.03
2018-11-12T08:05:21.058Z,96526.55
2018-11-12T08:07:48.313Z,96523.84
2018-11-12T08:10:16.883Z,96514.02
2018-11-12T08:12:44.575Z,96507.45
2018-11-12T08:15:13.037Z,96510.10
2018-11-12T08:17:40.452Z,96511.53
2018-11-12T08:20:09.621Z,96515.91
2018-11-12T08:22:36.879Z,96509.94
2018-11-12T08:25:04.430Z,96511.91
2018-11-12T08:27:31.736Z,96503.33
2018-11-12T08:29:59.036Z,96476.52
2018-11-12T08:32:26.175Z,96505.44
2018-11-12T08:34:53.418Z,96505.88
2018-11-12T08:37:21.770Z,96505.81
2018-11-12T08:39:49.178Z,96510.62
2018-11-12T08:42:16.338Z,96506.14
2018-11-12T08:44:43.603Z,96502.05
2018-11-12T08:47:10.821Z,96507.26
2018-11-12T08:49:38.282Z,96503.42
2018-11-12T08:52:05.608Z,96508.33
2018-11-12T08:54:32.960Z,96508.30
2018-11-12T08:57:00.148Z,96520.63
2018-11-12T08:59:27.421Z,96514.17
2018-11-12T09:01:54.669Z,96524.50
2018-11-12T09:04:21.959Z,96530.02
2018-11-12T09:06:49.254Z,96536.19
2018-11-12T09:09:16.551Z,96543.84
2018-11-12T09:11:43.778Z,96538.63
2018-11-12T09:14:11.019Z,96544.26
2018-11-12T09:16:38.807Z,96558.69
2018-11-12T09:19:06.090Z,96552.92
2018-11-12T09:21:33.305Z,96564.83
2018-11-12T09:24:01.209Z,96561.47
2018-11-12T09:26:28.536Z,96566.34
2018-11-12T09:28:55.818Z,96576.28
2018-11-12T09:31:24.373Z,96561.28
2018-11-12T09:33:50.306Z,96584.59
2018-11-12T09:36:17.557Z,96600.91
2018-11-12T09:38:44.865Z,96597.73
2018-11-12T09:41:12.156Z,96600.64
2018-11-12T09:43:39.366Z,96608.53
2018-11-12T09:46:06.671Z,96607.34
2018-11-12T09:48:33.880Z,96605.41
2018-11-12T09:51:01.107Z,96605.91
2018-11-12T09:53:28.372Z,96606.27
2018-11-12T09:55:55.639Z,96602.66
2018-11-12T09:58:22.878Z,96600.98
2018-11-12T10:00:50.373Z,96597.41
2018-11-12T10:03:22.888Z,96601.80
2018-11-12T10:05:50.374Z,96606.72
2018-11-12T10:08:18.338Z,96605.16
2018-11-12T10:10:50.421Z,96610.78
2018-11-12T10:13:19.509Z,96536.07
2018-11-12T10:15:48.322Z,96598.46
2018-11-12T10:20:39.772Z,96609.77
2018-11-12T10:23:07.036Z,96606.06
2018-11-12T10:25:34.303Z,96605.38
2018-11-12T10:28:01.535Z,96609.77
2018-11-12T10:30:28.702Z,96613.23
2018-11-12T10:32:55.945Z,96592.45
2018-11-12T10:35:23.220Z,96614.27
2018-11-12T10:37:50.439Z,96612.02
2018-11-12T10:40:20.038Z,96620.73
2018-11-12T10:42:47.372Z,96618.72
2018-11-12T10:45:14.902Z,96614.91
2018-11-12T10:47:42.345Z,96617.98
2018-11-12T10:50:09.600Z,96617.03
2018-11-12T10:52:37.002Z,96595.42
2018-11-12T10:55:05.902Z,96608.22
2018-11-12T10:57:33.006Z,96614.20
2018-11-12T11:00:00.319Z,96614.05
2018-11-12T11:02:36.070Z,96618.95
2018-11-12T11:05:03.581Z,96617.84
2018-11-12T11:07:30.788Z,96621.44
2018-11-12T11:09:57.997Z,96610.73
2018-11-12T11:12:25.180Z,96615.52
2018-11-12T11:14:52.723Z,96608.48
2018-11-12T11:17:19.958Z,96612.52
2018-11-12T11:19:47.330Z,96619.51
2018-11-12T11:22:14.550Z,96626.89
2018-11-12T11:24:41.751Z,96619.95
2018-11-12T11:27:09.070Z,96619.66
2018-11-12T11:29:36.321Z,96620.59
2018-11-12T11:32:03.569Z,96615.34
2018-11-12T11:34:30.832Z,96607.69
2018-11-12T11:36:58.083Z,96615.60
2018-11-12T11:39:25.350Z,96623.13
2018-11-12T11:41:52.584Z,96618.58
2018-11-12T11:44:19.813Z,96621.05
2018-11-12T11:46:47.115Z,96616.99
2018-11-12T11:49:16.948Z,96612.47
2018-11-12T11:51:44.237Z,96611.16
2018-11-12T11:54:11.418Z,96609.42
2018-11-12T11:56:38.700Z,96607.42
2018-11-12T11:59:05.948Z,96620.55
2018-11-12T12:01:33.237Z,96616.57
2018-11-12T12:04:00.915Z,96619.62
2018-11-12T12:06:29.256Z,96622.70
2018-11-12T12:08:56.822Z,96621.80
2018-11-12T12:11:23.935Z,96625.83
2018-11-12T12:13:51.103Z,96619.02
2018-11-12T12:16:18.380Z,96615.23
2018-11-12T12:18:45.666Z,96617.59
2018-11-12T12:21:12.874Z,96619.25
2018-11-12T12:23:40.620Z,96623.22
2018-11-12T12:26:08.043Z,96620.27
2018-11-12T12:28:35.245Z,96623.64
2018-11-12T12:31:02.475Z,96617.63
2018-11-12T12:33:29.701Z,96621.74
2018-11-12T12:35:57.033Z,96630.72
2018-11-12T12:38:24.121Z,96621.92
2018-11-12T12:40:51.344Z,96624.00
2018-11-12T12:43:18.612Z,96625.59
2018-11-12T12:45:46.035Z,96621.64
2018-11-12T12:48:13.214Z,96619.02
2018-11-12T12:50:40.464Z,96619.81
2018-11-12T12:53:07.756Z,96617.13
2018-11-12T12:55:35.187Z,96621.41
2018-11-12T12:58:02.370Z,96625.58
2018-11-12T13:00:29.565Z,96628.55
2018-11-12T13:02:56.855Z,96621.73
2018-11-12T13:05:24.062Z,96629.22
2018-11-12T13:07:51.312Z,96630.17
2018-11-12T13:10:19.747Z,96627.10
2018-11-12T13:12:47.034Z,96621.95
2018-11-12T13:15:15.483Z,96620.66
2018-11-12T13:17:43.357Z,96609.08
2018-11-12T13:20:12.249Z,96608.61
2018-11-12T13:22:39.658Z,96617.97
2018-11-12T13:25:07.542Z,96615.98
2018-11-12T13:27:34.753Z,96621.30
2018-11-12T13:30:02.096Z,96623.98
2018-11-12T13:32:29.263Z,96620.88
2018-11-12T13:34:56.525Z,96618.60
2018-11-12T13:37:23.777Z,96612.23
2018-11-12T13:39:51.050Z,96612.58
2018-11-12T13:42:18.278Z,96618.16
2018-11-12T13:44:45.494Z,96624.83
2018-11-12T13:47:12.749Z,96626.95
2018-11-12T13:49:40.018Z,96634.55
2018-11-12T13:52:07.307Z,96623.92
2018-11-12T13:54:34.516Z,96624.75
2018-11-12T13:57:01.853Z,96641.63
2018-11-12T13:59:29.037Z,96641.15
2018-11-12T14:01:56.306Z,96633.44
2018-11-12T14:04:23.616Z,96638.77
2018-11-12T14:06:50.868Z,96639.00
2018-11-12T14:09:18.157Z,96632.74
2018-11-12T14:11:45.396Z,96634.64
2018-11-12T14:14:12.714Z,96640.41
2018-11-12T14:16:39.924Z,96638.22
2018-11-12T14:19:07.208Z,96633.80
2018-11-12T14:21:34.695Z,96630.63
2018-11-12T14:24:02.047Z,96632.08
2018-11-12T14:26:29.238Z,96639.70
2018-11-12T14:28:56.564Z,96641.70
2018-11-12T14:31:23.807Z,96640.44
2018-11-12T14:33:51.624Z,96638.55
2018-11-12T14:36:18.819Z,96639.27
2018-11-12T14:38:46.082Z,96634.39
2018-11-12T14:41:13.283Z,96632.61
2018-11-12T14:43:40.477Z,96630.15
2018-11-12T14:46:07.714Z,96629.33
2018-11-12T14:48:34.974Z,96628.98
2018-11-12T14:51:02.306Z,96630.32
2018-11-12T14:53:29.516Z,96630.13
2018-11-12T14:55:56.763Z,96642.22
2018-11-12T14:58:24.096Z,96643.88
2018-11-12T15:00:51.379Z,96632.11
2018-11-12T15:03:18.590Z,96637.27
2018-11-12T15:05:45.872Z,96640.91
2018-11-12T15:08:13.128Z,96641.60
2018-11-12T15:10:40.391Z,96642.92
2018-11-12T15:13:07.654Z,96648.89
2018-11-12T15:15:34.924Z,96649.53
2018-11-12T15:18:02.226Z,96650.61
2018-11-12T15:20:29.465Z,96650.16
2018-11-12T15:22:56.751Z,96645.52
2018-11-12T15:25:24.607Z,96646.64
2018-11-12T15:27:51.888Z,96587.12
2018-11-12T15:30:20.400Z,96641.59
2018-11-12T15:32:48.600Z,96558.31
2018-11-12T15:35:15.901Z,96649.97
2018-11-12T15:37:43.992Z,96656.39
2018-11-12T15:40:11.709Z,96657.84
2018-11-12T15:42:39.426Z,96657.78
2018-11-12T15:45:09.788Z,96658.53
2018-11-12T15:47:37.046Z,96661.03
2018-11-12T15:50:08.372Z,96660.96
2018-11-12T15:52:35.671Z,96663.27
2018-11-12T15:55:02.966Z,96672.00
2018-11-12T15:57:30.288Z,96672.65
2018-11-12T15:59:57.455Z,96674.78
2018-11-12T16:02:24.710Z,96686.70
2018-11-12T16:04:52.000Z,96697.67
2018-11-12T16:07:19.269Z,96697.31
2018-11-12T16:09:46.542Z,96700.87
2018-11-12T16:12:13.770Z,96706.56
2018-11-12T16:14:40.992Z,96707.22
2018-11-12T16:17:08.230Z,96712.88
2018-11-12T16:19:35.478Z,96714.30
2018-11-12T16:22:02.797Z,96713.50
2018-11-12T16:24:30.101Z,96719.61
2018-11-12T16:26:57.446Z,96727.05
2018-11-12T16:29:24.641Z,96721.59
2018-11-12T16:31:51.951Z,96718.86
2018-11-12T16:34:19.221Z,96722.41
2018-11-12T16:36:46.540Z,96728.12
2018-11-12T16:39:13.779Z,96676.45
2018-11-12T16:41:41.155Z,96733.75
2018-11-12T16:44:09.240Z,96743.42
2018-11-12T16:46:36.405Z,96745.11
2018-11-12T16:49:03.667Z,96747.33
2018-11-12T16:51:30.922Z,96755.70
2018-11-12T16:53:58.196Z,96754.81
2018-11-12T16:56:25.638Z,96758.50
2018-11-12T16:58:52.941Z,96752.06
2018-11-12T17:01:20.235Z,96756.94
2018-11-12T17:03:47.509Z,96761.48
2018-11-12T17:06:14.766Z,96754.55
2018-11-12T17:08:42.001Z,96757.18
2018-11-12T17:11:09.299Z,96762.42
2018-11-12T17:13:36.520Z,96765.30
2018-11-12T17:16:03.991Z,96772.11
2018-11-12T17:18:31.217Z,96773.73
2018-11-12T17:20:58.351Z,96772.06
2018-11-12T17:23:25.562Z,96771.22
2018-11-12T17:25:52.842Z,96775.89
2018-11-12T17:28:20.108Z,96770.16
2018-11-12T17:30:47.393Z,96776.70
2018-11-12T17:33:14.661Z,96779.23
2018-11-12T17:35:41.922Z,96778.02
2018-11-12T17:38:09.203Z,96776.00
2018-11-12T17:40:36.577Z,96774.08
2018-11-12T17:43:04.085Z,96777.93
2018-11-12T17:45:31.625Z,96783.67
2018-11-12T17:47:58.984Z,96792.70
2018-11-12T17:50:26.297Z,96793.31
2018-11-12T17:52:53.942Z,96797.61
2018-11-12T17:55:21.169Z,96791.30
2018-11-12T17:57:48.446Z,96790.67
2018-11-12T18:00:20.430Z,96788.87
2018-11-12T18:02:48.074Z,96799.36
2018-11-12T18:05:15.342Z,96678.42
2018-11-12T18:07:42.916Z,96793.84
2018-11-12T18:10:10.819Z,96801.34
2018-11-12T18:12:38.062Z,96805.48
2018-11-12T18:15:07.645Z,96811.58
2018-11-12T18:17:34.936Z,96816.67
2018-11-12T18:20:02.239Z,96815.86
2018-11-12T18:22:29.520Z,96814.80
2018-11-12T18:24:56.802Z,96828.02
2018-11-12T18:27:24.194Z,96832.70
2018-11-12T18:29:51.476Z,96820.91
2018-11-12T18:32:18.839Z,96823.77
2018-11-12T18:34:46.120Z,96828.88
2018-11-12T18:37:13.412Z,96821.47
2018-11-12T18:39:40.658Z,96825.44
2018-11-12T18:42:07.993Z,96831.64
2018-11-12T18:44:35.272Z,96826.29
2018-11-12T18:47:02.570Z,96828.77
2018-11-12T18:49:29.801Z,96831.39
2018-11-12T18:51:57.088Z,96832.10
2018-11-12T18:54:24.316Z,96837.69
2018-11-12T18:56:51.561Z,96837.42
2018-11-12T18:59:18.879Z,96830.39
2018-11-12T19:01:46.163Z,96826.30
2018-11-12T19:04:13.550Z,96837.13
2018-11-12T19:06:40.844Z,96841.30
2018-11-12T19:09:08.925Z,96847.23
2018-11-12T19:11:36.340Z,96853.55
2018-11-12T19:14:03.842Z,96842.61
2018-11-12T19:16:31.048Z,96840.09
2018-11-12T19:18:58.592Z,96847.86
2018-11-12T19:21:25.823Z,96842.61
2018-11-12T19:23:53.063Z,96847.87
2018-11-12T19:26:20.854Z,96845.50
2018-11-12T19:28:48.089Z,96843.84
2018-11-12T19:31:15.328Z,96856.34
2018-11-12T19:33:42.534Z,96853.76
2018-11-12T19:36:09.713Z,96848.98
2018-11-12T19:38:36.994Z,96860.63
2018-11-12T19:41:04.989Z,96854.81
2018-11-12T19:43:32.238Z,96866.47
2018-11-12T19:45:59.456Z,96867.42
2018-11-12T19:48:26.777Z,96860.52
2018-11-12T19:50:54.053Z,96851.69
2018-11-12T19:53:21.309Z,96855.38
2018-11-12T19:55:48.587Z,96857.19
2018-11-12T19:58:15.892Z,96857.04
2018-11-12T20:00:43.145Z,96855.45
2018-11-12T20:03:10.434Z,96860.69
2018-11-12T20:05:37.734Z,96846.61
2018-11-12T20:08:05.133Z,96855.18
2018-11-12T20:10:32.421Z,96853.23
2018-11-12T20:13:00.073Z,96856.66
2018-11-12T20:15:27.505Z,96855.47
2018-11-12T20:17:55.137Z,96858.84
2018-11-12T20:20:24.965Z,96817.34
2018-11-12T20:22:52.574Z,96861.54
2018-11-12T20:25:20.077Z,96868.91
2018-11-12T20:27:48.037Z,96870.34
2018-11-12T20:30:19.647Z,96872.09
2018-11-12T20:32:47.042Z,96867.19
2018-11-12T20:35:14.375Z,96863.63
2018-11-12T20:37:41.646Z,96874.13
2018-11-12T20:40:10.045Z,96874.79
2018-11-12T20:42:37.254Z,96867.45
2018-11-12T20:45:05.568Z,96872.89
2018-11-12T20:47:32.725Z,96870.98
2018-11-12T20:50:00.071Z,96878.36
2018-11-12T20:52:27.308Z,96878.20
2018-11-12T20:54:54.553Z,96879.42
2018-11-12T20:57:21.802Z,96871.35
2018-11-12T20:59:49.097Z,96877.02
2018-11-12T21:02:16.405Z,96877.95
2018-11-12T21:04:43.696Z,96880.15
2018-11-12T21:07:11.073Z,96878.55
2018-11-12T21:09:38.690Z,96875.89
2018-11-12T21:12:05.901Z,96873.51
2018-11-12T21:14:33.165Z,96867.52
2018-11-12T21:17:00.433Z,96873.28
2018-11-12T21:19:27.685Z,96875.96
2018-11-12T21:21:55.122Z,96876.19
2018-11-12T21:24:22.380Z,96868.83
2018-11-12T21:26:49.732Z,96873.11
2018-11-12T21:29:17.001Z,96873.79
2018-11-12T21:31:44.347Z,96881.55
2018-11-12T21:34:11.666Z,96882.55
2018-11-12T21:36:39.085Z,96885.88
2018-11-12T21:39:10.459Z,96873.35
2018-11-12T21:41:37.699Z,96875.48
2018-11-12T21:44:05.971Z,96881.16
2018-11-12T21:46:33.258Z,96875.03
2018-11-12T21:49:00.678Z,96873.45
2018-11-12T21:51:27.960Z,96881.39
2018-11-12T21:53:55.322Z,96873.19
2018-11-12T21:56:22.646Z,96872.47
2018-11-12T21:58:50.343Z,96867.06
2018-11-12T22:01:17.435Z,96879.95
2018-11-12T22:03:44.900Z,96886.48
2018-11-12T22:06:12.181Z,96881.66
2018-11-12T22:08:39.622Z,96892.34
2018-11-12T22:11:06.776Z,96883.59
2018-11-12T22:13:34.685Z,96878.14
2018-11-12T22:16:01.901Z,96886.20
2018-11-12T22:18:29.161Z,96891.22
2018-11-12T22:20:56.453Z,96894.11
2018-11-12T22:23:23.809Z,96893.84
2018-11-12T22:25:51.091Z,96891.59
2018-11-12T22:28:18.401Z,96888.70
2018-11-12T22:30:45.605Z,96885.63
2018-11-12T22:33:12.891Z,96887.55
2018-11-12T22:35:40.165Z,96891.64
2018-11-12T22:38:07.458Z,96883.08
2018-11-12T22:40:34.776Z,96885.22
2018-11-12T22:43:02.035Z,96896.67
2018-11-12T22:45:29.337Z,96895.63
2018-11-12T22:47:56.617Z,96893.16
2018-11-12T22:50:23.865Z,96889.14
2018-11-12T22:52:51.112Z,96888.56
2018-11-12T22:55:18.986Z,96882.80
2018-11-12T22:57:46.235Z,96881.56
2018-11-12T23:00:20.270Z,96873.50
2018-11-12T23:02:48.320Z,96881.16
2018-11-12T23:05:16.100Z,96885.22
2018-11-12T23:07:43.941Z,96884.28
2018-11-12T23:10:11.232Z,96887.25
2018-11-12T23:12:38.634Z,96875.80
2018-11-12T23:15:06.660Z,96879.77
2018-11-12T23:17:33.889Z,96891.61
2018-11-12T23:20:01.184Z,96897.76
2018-11-12T23:22:28.452Z,96891.84
2018-11-12T23:24:55.656Z,96898.29
2018-11-12T23:27:22.960Z,96900.23
2018-11-12T23:29:50.186Z,96900.23
2018-11-12T23:34:48.020Z,96889.87
2018-11-12T23:37:15.270Z,96888.52
2018-11-12T23:39:42.590Z,96892.58
2018-11-12T23:42:09.847Z,96898.02
2018-11-12T23:44:37.131Z,96910.78
2018-11-12T23:47:04.838Z,96906.91
2018-11-12T23:49:32.045Z,96907.00
2018-11-12T23:51:59.276Z,96909.16
2018-11-12T23:54:26.594Z,96903.57
2018-11-12T23:56:53.817Z,96907.80
2018-11-12T23:59:21.026Z,96916.55
